This is the latest recevied weather packets stored in our database for station/object KC1TLF-15. If no packets are shown the sender has not sent any weather packets the latest 10 day(s).
| Time | Temp. | Humidity | Pressure | Rain* | Wind** | Luminosity | Snow |
|---|---|---|---|---|---|---|---|
| 1777709471 | 7.22° C | 78% | 1019.4 hPa | 0 mm | 0 m/s | 0 W/m² | - |
| 1777708271 | 7.78° C | 77% | 1019.5 hPa | 0 mm | 0 m/s | 0 W/m² | - |
| 1777707670 | 7.78° C | 77% | 1019.3 hPa | 0 mm | 0 m/s | 0 W/m² | - |
| 1777707069 | 7.78° C | 74% | 1019 hPa | 0 mm | 0 m/s | 0 W/m² | - |
| 1777706469 | 7.78° C | 77% | 1019.6 hPa | 0 mm | 0 m/s | 0 W/m² | - |
| 1777705870 | 7.78° C | 77% | 1019.4 hPa | 0 mm | 0 m/s | 0 W/m² | - |
| 1777705269 | 7.78° C | 78% | 1019.8 hPa | 0 mm | 0 m/s | 0 W/m² | - |
| 1777704670 | 7.78° C | 75% | 1019.7 hPa | 0 mm | 0 m/s | 0 W/m² | - |
| 1777704070 | 7.78° C | 75% | 1019.6 hPa | 0 mm | 0 m/s | 0 W/m² | - |
| 1777703471 | 7.22° C | 78% | 1019.7 hPa | 0 mm | 0 m/s | 0 W/m² | - |
| 1777702871 | 7.22° C | 77% | 1019.3 hPa | 0 mm | 0 m/s | 0 W/m² | - |
| 1777702270 | 7.22° C | 76% | 1019.2 hPa | 0 mm | 0 m/s | 0 W/m² | - |
| 1777701670 | 7.22° C | 76% | 1019.2 hPa | 0 mm | 0 m/s | 0 W/m² | - |
| 1777701071 | 7.22° C | 78% | 1019.3 hPa | 0 mm | 0 m/s | 0 W/m² | - |
| 1777700471 | 6.67° C | 78% | 1019.5 hPa | 0 mm | 0 m/s | 0 W/m² | - |
| 1777699869 | 6.67° C | 76% | 1019.5 hPa | 0 mm | 0 m/s | 0 W/m² | - |
| 1777699271 | 6.67° C | 77% | 1019.4 hPa | 0 mm | 0 m/s | 0 W/m² | - |
| 1777698669 | 7.22° C | 74% | 1019.5 hPa | 0 mm | 0 m/s | 0 W/m² | - |
| 1777698071 | 7.78° C | 74% | 1019.7 hPa | 0 mm | 0 m/s | 0 W/m² | - |
| 1777697470 | 7.78° C | 72% | 1019.5 hPa | 0 mm | 0 m/s | 0 W/m² | - |
| 1777696869 | 8.33° C | 70% | 1019.5 hPa | 0 mm | 0 m/s | 0 W/m² | - |
| 1777696270 | 7.78° C | 71% | 1019.6 hPa | 0 mm | 0 m/s | 0 W/m² | - |
| 1777695670 | 8.33° C | 71% | 1019.7 hPa | 0 mm | 0 m/s | 0 W/m² | - |
| 1777695070 | 7.78° C | 71% | 1019.8 hPa | 0 mm | 0 m/s | 0 W/m² | - |
| 1777694471 | 7.78° C | 70% | 1019.5 hPa | 0 mm | 0 m/s | 0 W/m² | - |
* Rain latest hour (hover to see other rain measurements)
** Current wind speed in m/s (hover to see current wind gust speed)